Oran, IA (50664)

12:49 PM CST on February 08, 2016 (GMT -0600)
Oelwein Municipal | | Change Station
CLOSE
Current Station
Airport
Location: Oelwein,
Elevation: 1076 ft
Nearby Weather Stations

Elev 1076 ft 42.68 °N, 91.97 °W | Updated 14 minutes ago

Snow
Snow
14 °F
Feels Like -6 °F
N
28
Wind Variable Wind from NNW
Gusts 36 mph

Today
High -- | Low -- °F
--% Chance of Precip.
Yesterday
High -- | Low -- °F
Precip. -- in
Pressure 29.85 in
Visibility 0.8 miles
Clouds Mostly Cloudy 1700 ft
Overcast 3800 ft
Windchill -6 °F
Dew Point 9 °F
Humidity 79%
Rainfall 0.00 in
Snow Depth Not available.
7:14 AM 5:29 PM
New Moon, 0% visible
METAR KOLZ 081835Z AUTO 33024G31KT 3/4SM -SN BKN017 OVC038 M10/M13 A2985 RMK AO2
Pressure 29.85 in
Visibility 0.8 miles
Clouds Mostly Cloudy 1700 ft
Overcast 3800 ft
Windchill -6 °F
Dew Point 9 °F
Humidity 79%
Rainfall 0.00 in
Snow Depth Not available.
7:14 AM 5:29 PM
New Moon, 0% visible
METAR KOLZ 081835Z AUTO 33024G31KT 3/4SM -SN BKN017 OVC038 M10/M13 A2985 RMK AO2

10-Day Weather Forecast

Almanac

Astronomy

Feb. 08, 2016 Rise Set
Actual Time
Civil Twilight
Nautical Twilight
Astronomical Twilight
Moon
Length of Visible Light
Length of Day
Tomorrow will be .
, % of the Moon is Illuminated

Today's Extremes

State Highs State Lows

Community

WunderPhotos

Upload Photos

1,891,481 photos uploaded!

WunderBlog® & News

Nearby

Air Quality

  Air Quality AQ Index Pollutant
Not available.

Snow Depth

Station Depth Elevation

Earthquake Activity

City Distance Mag. Time & Date
Minimum magnitude displayed is 2.5.

Coastal Water Temperatures

Place Temperature

Stations

Nearby Weather Stations

Station Location Temp. Windchill Dew Point Humidity Wind Precip. Elev Updated Type
                   

Watches & Warnings

There are currently no watches in effect.